createdAt,value
2022-09-11T00:01:44.684Z,15.40
2022-09-11T00:04:12.883Z,15.40
2022-09-11T00:06:41.034Z,15.40
2022-09-11T00:09:09.423Z,15.40
2022-09-11T00:11:42.293Z,15.40
2022-09-11T00:14:15.055Z,15.40
2022-09-11T00:16:46.390Z,15.40
2022-09-11T00:19:17.821Z,15.40
2022-09-11T00:21:46.365Z,15.40
2022-09-11T00:24:14.509Z,15.40
2022-09-11T00:26:43.308Z,15.50
2022-09-11T00:29:12.910Z,15.50
2022-09-11T00:31:41.612Z,15.40
2022-09-11T00:34:09.967Z,15.40
2022-09-11T00:36:41.252Z,15.40
2022-09-11T00:39:10.544Z,15.40
2022-09-11T00:41:41.506Z,15.40
2022-09-11T00:45:01.258Z,15.40
2022-09-11T00:47:31.978Z,15.40
2022-09-11T00:50:12.070Z,15.50
2022-09-11T00:52:45.088Z,15.40
2022-09-11T00:55:15.850Z,15.40
2022-09-11T00:57:52.264Z,15.50
2022-09-11T01:00:22.702Z,15.50
2022-09-11T01:02:54.459Z,15.50
2022-09-11T01:05:25.127Z,15.50
2022-09-11T01:07:55.864Z,15.50
2022-09-11T01:10:35.206Z,15.50
2022-09-11T01:13:11.414Z,15.50
2022-09-11T01:15:48.265Z,15.50
2022-09-11T01:18:23.975Z,15.50
2022-09-11T01:21:09.481Z,15.50
2022-09-11T01:24:11.631Z,15.50
2022-09-11T01:26:55.498Z,15.60
2022-09-11T01:29:30.488Z,15.60
2022-09-11T01:32:06.705Z,15.50
2022-09-11T01:34:42.304Z,15.60
2022-09-11T01:37:19.060Z,15.60
2022-09-11T01:39:55.704Z,15.60
2022-09-11T01:42:25.937Z,15.60
2022-09-11T01:44:58.492Z,15.60
2022-09-11T01:47:29.435Z,15.60
2022-09-11T01:50:03.119Z,15.60
2022-09-11T01:52:37.936Z,15.60
2022-09-11T01:55:13.092Z,15.60
2022-09-11T01:57:47.627Z,15.60
2022-09-11T02:00:18.929Z,15.50
2022-09-11T02:02:59.653Z,15.60
2022-09-11T02:05:34.579Z,15.60
2022-09-11T02:08:12.780Z,15.60
2022-09-11T02:10:48.253Z,15.60
2022-09-11T02:13:26.065Z,15.60
2022-09-11T02:16:03.763Z,15.70
2022-09-11T02:18:42.808Z,15.70
2022-09-11T02:21:11.307Z,15.70
2022-09-11T02:23:40.684Z,15.70
2022-09-11T02:26:10.857Z,15.70
2022-09-11T02:28:39.026Z,15.70
2022-09-11T02:31:08.703Z,15.70
2022-09-11T02:33:38.484Z,15.70
2022-09-11T02:36:24.826Z,15.80
2022-09-11T02:39:10.360Z,15.80
2022-09-11T02:41:51.787Z,15.70
2022-09-11T02:44:31.665Z,15.70
2022-09-11T02:47:12.837Z,15.70
2022-09-11T02:49:55.819Z,15.80
2022-09-11T02:52:41.943Z,15.80
2022-09-11T02:55:20.152Z,15.70
2022-09-11T02:57:54.091Z,15.80
2022-09-11T03:00:22.614Z,15.80
2022-09-11T03:02:53.571Z,15.80
2022-09-11T03:05:23.230Z,15.80
2022-09-11T03:07:51.788Z,15.80
2022-09-11T03:10:19.936Z,15.80
2022-09-11T03:12:48.028Z,15.80
2022-09-11T03:15:17.315Z,15.80
2022-09-11T03:17:45.499Z,15.80
2022-09-11T03:20:19.187Z,15.80
2022-09-11T03:22:48.377Z,15.90
2022-09-11T03:25:17.745Z,15.90
2022-09-11T03:27:46.112Z,15.90
2022-09-11T03:30:15.294Z,15.90
2022-09-11T03:32:43.669Z,15.90
2022-09-11T03:35:13.983Z,15.90
2022-09-11T03:37:43.462Z,15.90
2022-09-11T03:40:12.342Z,15.90
2022-09-11T03:42:40.621Z,15.90
2022-09-11T03:45:10.115Z,15.90
2022-09-11T03:47:38.621Z,15.90
2022-09-11T03:50:08.111Z,15.90
2022-09-11T03:52:37.010Z,15.80
2022-09-11T03:55:08.279Z,15.90
2022-09-11T03:57:37.347Z,15.90
2022-09-11T04:00:08.810Z,15.90
2022-09-11T04:02:49.621Z,15.90
2022-09-11T04:05:30.395Z,15.90
2022-09-11T04:07:59.683Z,15.90
2022-09-11T04:10:29.145Z,15.90
2022-09-11T04:12:58.879Z,15.90
2022-09-11T04:15:27.007Z,15.90
2022-09-11T04:17:55.078Z,15.90
2022-09-11T04:20:24.428Z,15.90
2022-09-11T04:22:52.550Z,15.90
2022-09-11T04:25:22.080Z,15.90
2022-09-11T04:27:51.697Z,15.90
2022-09-11T04:30:19.799Z,15.90
2022-09-11T04:32:50.304Z,15.90
2022-09-11T04:35:19.059Z,15.90
2022-09-11T04:37:53.520Z,15.90
2022-09-11T04:40:22.638Z,15.90
2022-09-11T04:42:52.050Z,15.90
2022-09-11T04:45:21.261Z,15.90
2022-09-11T04:47:52.935Z,15.90
2022-09-11T04:50:21.947Z,15.90
2022-09-11T04:53:09.213Z,15.90
2022-09-11T04:55:37.666Z,15.90
2022-09-11T04:58:07.610Z,15.90
2022-09-11T05:00:35.769Z,15.90
2022-09-11T05:03:03.867Z,15.90
2022-09-11T05:05:31.946Z,15.90
2022-09-11T05:07:59.966Z,15.90
2022-09-11T05:10:28.808Z,15.90
2022-09-11T05:12:56.848Z,15.90
2022-09-11T05:15:27.877Z,15.90
2022-09-11T05:17:56.074Z,15.90
2022-09-11T05:20:24.370Z,16.00
2022-09-11T05:22:53.574Z,15.90
2022-09-11T05:25:21.808Z,15.90
2022-09-11T05:27:50.444Z,15.90
2022-09-11T05:30:19.006Z,15.90
2022-09-11T05:32:48.607Z,16.00
2022-09-11T05:35:17.628Z,16.00
2022-09-11T05:37:46.407Z,16.00
2022-09-11T05:40:14.745Z,16.00
2022-09-11T05:42:43.030Z,16.10
2022-09-11T05:45:12.335Z,16.00
2022-09-11T05:47:40.507Z,16.00
2022-09-11T05:50:10.980Z,16.00
2022-09-11T05:52:39.162Z,16.10
2022-09-11T05:55:08.326Z,16.00
2022-09-11T05:57:36.784Z,16.10
2022-09-11T06:00:06.719Z,16.10
2022-09-11T06:02:38.348Z,16.10
2022-09-11T06:05:07.048Z,16.10
2022-09-11T06:07:36.615Z,16.10
2022-09-11T06:10:05.379Z,16.10
2022-09-11T06:12:35.035Z,16.10
2022-09-11T06:15:03.406Z,16.10
2022-09-11T06:17:32.453Z,16.20
2022-09-11T06:20:01.563Z,16.20
2022-09-11T06:22:34.046Z,16.20
2022-09-11T06:25:03.857Z,16.20
2022-09-11T06:27:32.180Z,16.20
2022-09-11T06:30:01.517Z,16.30
2022-09-11T06:32:34.279Z,16.30
2022-09-11T06:35:02.431Z,16.30
2022-09-11T06:37:30.941Z,16.30
2022-09-11T06:39:59.349Z,16.30
2022-09-11T06:42:31.353Z,16.30
2022-09-11T06:45:02.703Z,16.30
2022-09-11T06:47:32.402Z,16.30
2022-09-11T06:50:01.194Z,16.40
2022-09-11T06:52:35.732Z,16.40
2022-09-11T06:55:14.456Z,16.40
2022-09-11T06:57:50.183Z,16.40
2022-09-11T07:00:23.699Z,16.50
2022-09-11T07:02:52.958Z,16.60
2022-09-11T07:05:21.965Z,16.60
2022-09-11T07:07:53.335Z,16.70
2022-09-11T07:10:21.430Z,16.70
2022-09-11T07:12:56.342Z,16.80
2022-09-11T07:15:24.465Z,16.90
2022-09-11T07:17:52.591Z,16.90
2022-09-11T07:20:22.136Z,16.90
2022-09-11T07:22:50.362Z,17.00
2022-09-11T07:25:21.701Z,17.00
2022-09-11T07:27:51.105Z,17.10
2022-09-11T07:30:22.309Z,17.20
2022-09-11T07:32:54.364Z,17.30
2022-09-11T07:35:22.688Z,17.30
2022-09-11T07:37:53.881Z,17.40
2022-09-11T07:40:26.662Z,17.40
2022-09-11T07:42:55.631Z,17.40
2022-09-11T07:45:28.080Z,17.50
2022-09-11T07:47:56.310Z,17.50
2022-09-11T07:50:24.723Z,17.70
2022-09-11T07:52:53.328Z,17.90
2022-09-11T07:55:22.606Z,18.00
2022-09-11T07:57:54.061Z,18.10
2022-09-11T08:00:25.502Z,18.20
2022-09-11T08:03:05.719Z,18.30
2022-09-11T08:05:37.111Z,18.30
2022-09-11T08:08:06.347Z,18.30
2022-09-11T08:10:40.938Z,18.40
2022-09-11T08:13:09.732Z,18.50
2022-09-11T08:15:47.120Z,18.50
2022-09-11T08:18:15.910Z,18.60
2022-09-11T08:20:44.756Z,18.70
2022-09-11T08:23:14.635Z,18.80
2022-09-11T08:25:45.139Z,19.00
2022-09-11T08:28:13.464Z,19.30
2022-09-11T08:30:42.954Z,19.40
2022-09-11T08:33:13.472Z,19.40
2022-09-11T08:35:42.611Z,19.50
2022-09-11T08:38:10.703Z,19.40
2022-09-11T08:40:39.871Z,19.50
2022-09-11T08:43:21.369Z,19.50
2022-09-11T08:45:55.678Z,19.60
2022-09-11T08:48:34.998Z,20.50
2022-09-11T08:51:03.418Z,21.50
2022-09-11T08:53:33.910Z,22.90
2022-09-11T08:56:07.894Z,24.40
2022-09-11T08:58:50.940Z,24.70
2022-09-11T09:01:30.311Z,24.80
2022-09-11T09:04:15.436Z,24.80
2022-09-11T09:07:00.934Z,25.40
2022-09-11T09:09:43.824Z,25.30
2022-09-11T09:12:21.856Z,24.80
2022-09-11T09:15:16.978Z,24.10
2022-09-11T09:17:52.287Z,23.70
2022-09-11T09:20:24.033Z,23.60
2022-09-11T09:22:58.786Z,23.40
2022-09-11T09:25:30.028Z,23.50
2022-09-11T09:28:07.687Z,23.60
2022-09-11T09:30:51.442Z,23.90
2022-09-11T09:33:34.602Z,24.90
2022-09-11T09:36:17.627Z,25.40
2022-09-11T09:38:46.977Z,25.40
2022-09-11T09:41:49.498Z,24.90
2022-09-11T09:44:35.995Z,24.30
2022-09-11T09:47:04.436Z,23.70
2022-09-11T09:49:37.407Z,23.10
2022-09-11T09:52:19.569Z,22.70
2022-09-11T09:54:57.110Z,22.40
2022-09-11T09:57:31.854Z,22.30
2022-09-11T10:00:06.881Z,22.10
2022-09-11T10:02:49.104Z,22.00
2022-09-11T10:05:25.568Z,21.90
2022-09-11T10:07:57.074Z,21.80
2022-09-11T10:10:31.396Z,21.80
2022-09-11T10:13:18.505Z,22.00
2022-09-11T10:15:50.415Z,22.10
2022-09-11T10:18:36.041Z,22.30
2022-09-11T10:21:33.476Z,23.30
2022-09-11T10:24:04.644Z,24.10
2022-09-11T10:26:35.606Z,24.40
2022-09-11T10:29:09.855Z,24.30
2022-09-11T10:31:41.993Z,25.40
2022-09-11T10:34:17.005Z,25.40
2022-09-11T10:36:55.165Z,25.40
2022-09-11T10:39:26.079Z,25.20
2022-09-11T10:41:58.916Z,25.30
2022-09-11T10:44:28.427Z,25.30
2022-09-11T10:47:07.209Z,25.20
2022-09-11T10:49:36.117Z,25.00
2022-09-11T10:52:22.084Z,24.60
2022-09-11T10:55:01.905Z,24.20
2022-09-11T10:57:34.177Z,23.90
2022-09-11T11:00:15.437Z,23.50
2022-09-11T11:02:47.284Z,23.10
2022-09-11T11:05:22.464Z,22.90
2022-09-11T11:08:23.584Z,22.70
2022-09-11T11:11:14.045Z,23.30
2022-09-11T11:14:08.305Z,24.90
2022-09-11T11:16:50.847Z,26.60
2022-09-11T11:19:53.793Z,28.00
2022-09-11T11:22:48.143Z,29.10
2022-09-11T11:25:24.222Z,29.70
2022-09-11T11:28:35.479Z,30.30
2022-09-11T11:31:22.746Z,31.00
2022-09-11T11:34:25.459Z,31.50
2022-09-11T11:37:01.482Z,31.80
2022-09-11T11:39:33.937Z,32.20
2022-09-11T11:42:12.170Z,32.40
2022-09-11T11:44:47.320Z,32.60
2022-09-11T11:47:18.001Z,31.70
2022-09-11T11:49:56.866Z,32.10
2022-09-11T11:52:44.473Z,32.90
2022-09-11T11:55:20.694Z,33.40
2022-09-11T11:58:01.191Z,33.50
2022-09-11T12:00:33.220Z,33.60
2022-09-11T12:03:11.019Z,34.10
2022-09-11T12:05:40.286Z,34.50
2022-09-11T12:08:13.835Z,34.40
2022-09-11T12:10:47.013Z,34.70
2022-09-11T12:13:19.730Z,35.20
2022-09-11T12:16:11.205Z,35.40
2022-09-11T12:18:42.146Z,35.10
2022-09-11T12:21:49.321Z,35.00
2022-09-11T12:24:24.495Z,35.40
2022-09-11T12:27:44.987Z,36.20
2022-09-11T12:30:24.028Z,36.10
2022-09-11T12:32:54.001Z,36.30
2022-09-11T12:35:32.738Z,36.90
2022-09-11T12:38:18.195Z,36.80
2022-09-11T12:40:54.250Z,36.80
2022-09-11T12:43:46.627Z,37.00
2022-09-11T12:47:07.876Z,37.10
2022-09-11T12:49:37.456Z,37.30
2022-09-11T12:52:05.832Z,37.50
2022-09-11T12:54:41.087Z,36.40
2022-09-11T12:57:19.118Z,35.50
2022-09-11T12:59:54.506Z,34.20
2022-09-11T13:02:29.909Z,32.90
2022-09-11T13:04:58.924Z,31.60
2022-09-11T13:07:33.396Z,30.50
2022-09-11T13:10:08.522Z,29.60
2022-09-11T13:12:52.759Z,28.80
2022-09-11T13:15:43.055Z,28.00
2022-09-11T13:18:32.878Z,27.20
2022-09-11T13:21:04.654Z,26.60
2022-09-11T13:23:33.047Z,26.20
2022-09-11T13:26:04.647Z,26.00
2022-09-11T13:28:36.927Z,25.90
2022-09-11T13:31:05.167Z,25.80
2022-09-11T13:33:35.015Z,25.70
2022-09-11T13:36:06.805Z,26.40
2022-09-11T13:38:37.392Z,26.60
2022-09-11T13:41:08.764Z,26.70
2022-09-11T13:43:39.893Z,27.20
2022-09-11T13:46:26.623Z,27.10
2022-09-11T13:49:01.168Z,27.50
2022-09-11T13:51:31.172Z,28.50
2022-09-11T13:54:09.009Z,29.20
2022-09-11T13:56:46.982Z,29.60
2022-09-11T13:59:39.811Z,30.10
2022-09-11T14:02:25.581Z,30.80
2022-09-11T14:05:11.105Z,31.10
2022-09-11T14:07:48.161Z,31.10
2022-09-11T14:10:24.320Z,31.30
2022-09-11T14:13:02.991Z,31.40
2022-09-11T14:15:40.370Z,31.30
2022-09-11T14:18:17.097Z,31.50
2022-09-11T14:20:47.607Z,32.10
2022-09-11T14:23:21.579Z,32.50
2022-09-11T14:26:21.731Z,32.30
2022-09-11T14:29:05.074Z,31.70
2022-09-11T14:31:37.724Z,31.10
2022-09-11T14:34:18.166Z,30.50
2022-09-11T14:36:52.897Z,30.00
2022-09-11T14:39:35.204Z,30.00
2022-09-11T14:42:05.991Z,30.40
2022-09-11T14:44:35.510Z,30.60
2022-09-11T14:47:03.590Z,31.20
2022-09-11T14:49:31.789Z,31.20
2022-09-11T14:52:02.404Z,31.00
2022-09-11T14:54:32.040Z,30.60
2022-09-11T14:57:00.621Z,30.10
2022-09-11T14:59:29.921Z,29.30
2022-09-11T15:01:59.500Z,28.90
2022-09-11T15:04:29.435Z,28.70
2022-09-11T15:06:59.764Z,28.40
2022-09-11T15:09:29.235Z,28.60
2022-09-11T15:11:57.322Z,28.90
2022-09-11T15:14:51.884Z,28.80
2022-09-11T15:17:17.371Z,28.50
2022-09-11T15:19:47.103Z,28.50
2022-09-11T15:22:15.362Z,28.20
2022-09-11T15:24:44.775Z,28.20
2022-09-11T15:27:12.913Z,27.80
2022-09-11T15:29:42.461Z,27.50
2022-09-11T15:32:11.350Z,27.50
2022-09-11T15:34:42.408Z,27.40
2022-09-11T15:37:11.638Z,27.50
2022-09-11T15:39:39.873Z,27.30
2022-09-11T15:42:09.943Z,26.90
2022-09-11T15:44:38.560Z,26.60
2022-09-11T15:47:07.032Z,26.10
2022-09-11T15:49:40.846Z,26.10
2022-09-11T15:52:09.437Z,25.60
2022-09-11T15:54:37.772Z,25.20
2022-09-11T15:57:05.955Z,24.90
2022-09-11T15:59:37.801Z,24.60
2022-09-11T16:02:05.962Z,24.30
2022-09-11T16:04:34.742Z,24.00
2022-09-11T16:07:03.214Z,23.80
2022-09-11T16:09:33.372Z,23.60
2022-09-11T16:12:02.147Z,23.30
2022-09-11T16:14:32.797Z,23.10
2022-09-11T16:17:03.404Z,22.90
2022-09-11T16:19:32.386Z,22.70
2022-09-11T16:22:03.980Z,22.60
2022-09-11T16:24:37.266Z,22.50
2022-09-11T16:27:08.568Z,22.30
2022-09-11T16:30:15.963Z,22.10
2022-09-11T16:32:29.777Z,22.00
2022-09-11T16:34:59.345Z,21.90
2022-09-11T16:37:28.126Z,21.80
2022-09-11T16:39:56.317Z,21.70
2022-09-11T16:42:24.499Z,21.50
2022-09-11T16:44:53.445Z,21.50
2022-09-11T16:47:21.616Z,21.30
2022-09-11T16:50:06.568Z,21.30
2022-09-11T16:52:35.857Z,21.20
2022-09-11T16:55:04.580Z,21.10
2022-09-11T16:57:33.251Z,21.10
2022-09-11T17:00:01.975Z,21.00
2022-09-11T17:02:30.112Z,21.00
2022-09-11T17:04:59.543Z,20.90
2022-09-11T17:07:28.081Z,20.80
2022-09-11T17:09:56.139Z,20.80
2022-09-11T17:12:24.596Z,20.70
2022-09-11T17:14:52.667Z,20.60
2022-09-11T17:17:20.801Z,20.60
2022-09-11T17:19:51.811Z,20.50
2022-09-11T17:22:21.384Z,20.40
2022-09-11T17:24:49.440Z,20.30
2022-09-11T17:27:17.553Z,20.20
2022-09-11T17:29:47.225Z,20.10
2022-09-11T17:32:29.203Z,20.00
2022-09-11T17:34:58.295Z,19.90
2022-09-11T17:37:28.549Z,19.80
2022-09-11T17:39:57.797Z,19.70
2022-09-11T17:42:27.536Z,19.60
2022-09-11T17:44:56.259Z,19.50
2022-09-11T17:47:24.470Z,19.50
2022-09-11T17:49:52.701Z,19.30
2022-09-11T17:52:20.877Z,19.20
2022-09-11T17:54:50.510Z,19.10
2022-09-11T17:57:18.636Z,19.00
2022-09-11T17:59:49.951Z,18.90
2022-09-11T18:02:19.592Z,18.80
2022-09-11T18:04:48.869Z,18.70
2022-09-11T18:07:17.454Z,18.60
2022-09-11T18:09:45.698Z,18.50
2022-09-11T18:12:15.552Z,18.40
2022-09-11T18:14:43.901Z,18.30
2022-09-11T18:17:12.180Z,18.20
2022-09-11T18:19:40.261Z,18.10
2022-09-11T18:22:09.802Z,18.00
2022-09-11T18:24:39.862Z,17.90
2022-09-11T18:27:09.791Z,17.90
2022-09-11T18:29:40.592Z,17.80
2022-09-11T18:32:10.092Z,17.70
2022-09-11T18:34:38.518Z,17.60
2022-09-11T18:37:07.202Z,17.50
2022-09-11T18:39:35.418Z,17.40
2022-09-11T18:42:06.180Z,17.30
2022-09-11T18:44:34.335Z,17.20
2022-09-11T18:47:03.767Z,17.10
2022-09-11T18:49:32.106Z,17.00
2022-09-11T18:52:00.616Z,16.90
2022-09-11T18:54:29.967Z,16.80
2022-09-11T18:57:00.197Z,16.70
2022-09-11T18:59:31.479Z,16.60
2022-09-11T19:02:00.350Z,16.60
2022-09-11T19:04:29.976Z,16.50
2022-09-11T19:07:00.194Z,16.40
2022-09-11T19:09:29.199Z,16.40
2022-09-11T19:12:00.185Z,16.30
2022-09-11T19:14:30.929Z,16.30
2022-09-11T19:17:08.752Z,16.10
2022-09-11T19:19:39.797Z,16.10
2022-09-11T19:22:08.021Z,16.00
2022-09-11T19:24:36.164Z,16.00
2022-09-11T19:27:07.112Z,15.90
2022-09-11T19:30:19.745Z,15.80
2022-09-11T19:32:50.522Z,15.80
2022-09-11T19:35:20.106Z,15.70
2022-09-11T19:37:48.334Z,15.60
2022-09-11T19:40:46.206Z,15.60
2022-09-11T19:43:26.074Z,15.50
2022-09-11T19:46:03.549Z,15.50
2022-09-11T19:49:17.864Z,15.40
2022-09-11T19:52:10.467Z,15.40
2022-09-11T19:54:41.679Z,15.30
2022-09-11T19:57:16.067Z,15.30
2022-09-11T19:59:52.403Z,15.30
2022-09-11T20:02:28.884Z,15.30
2022-09-11T20:05:21.628Z,15.20
2022-09-11T20:07:52.944Z,15.20
2022-09-11T20:11:10.559Z,15.10
2022-09-11T20:14:02.002Z,15.10
2022-09-11T20:16:30.359Z,15.00
2022-09-11T20:19:09.399Z,15.00
2022-09-11T20:21:37.901Z,15.00
2022-09-11T20:24:12.890Z,14.90
2022-09-11T20:26:41.033Z,14.90
2022-09-11T20:29:13.590Z,14.90
2022-09-11T20:31:47.584Z,14.80
2022-09-11T20:34:16.934Z,14.70
2022-09-11T20:36:45.493Z,14.70
2022-09-11T20:39:17.252Z,14.70
2022-09-11T20:41:45.761Z,14.60
2022-09-11T20:44:13.877Z,14.60
2022-09-11T20:46:43.544Z,14.50
2022-09-11T20:49:12.856Z,14.50
2022-09-11T20:51:41.016Z,14.40
2022-09-11T20:54:09.699Z,14.40
2022-09-11T20:56:39.190Z,14.40
2022-09-11T20:59:07.748Z,14.30
2022-09-11T21:01:36.161Z,14.30
2022-09-11T21:04:05.773Z,14.30
2022-09-11T21:06:36.231Z,14.20
2022-09-11T21:09:07.901Z,14.20
2022-09-11T21:11:39.480Z,14.10
2022-09-11T21:14:08.276Z,14.10
2022-09-11T21:16:36.436Z,14.10
2022-09-11T21:19:06.330Z,14.00
2022-09-11T21:21:37.698Z,14.00
2022-09-11T21:24:08.908Z,14.00
2022-09-11T21:26:38.418Z,14.00
2022-09-11T21:29:09.849Z,13.90
2022-09-11T21:31:38.031Z,13.90
2022-09-11T21:34:06.619Z,13.80
2022-09-11T21:36:36.612Z,13.80
2022-09-11T21:39:05.570Z,13.80
2022-09-11T21:41:33.639Z,13.70
2022-09-11T21:44:03.604Z,13.70
2022-09-11T21:46:37.860Z,13.70
2022-09-11T21:49:06.017Z,13.70
2022-09-11T21:51:34.094Z,13.60
2022-09-11T21:54:02.235Z,13.60
2022-09-11T21:56:32.592Z,13.50
2022-09-11T21:59:02.665Z,13.50
2022-09-11T22:01:31.613Z,13.40
2022-09-11T22:04:01.199Z,13.40
2022-09-11T22:06:29.946Z,13.30
2022-09-11T22:08:58.471Z,13.30
2022-09-11T22:11:26.834Z,13.30
2022-09-11T22:13:55.421Z,13.30
2022-09-11T22:16:25.037Z,13.20
2022-09-11T22:18:55.111Z,13.20
2022-09-11T22:21:23.470Z,13.20
2022-09-11T22:23:51.599Z,13.10
2022-09-11T22:26:23.501Z,13.10
2022-09-11T22:28:52.428Z,13.00
2022-09-11T22:31:23.600Z,13.00
2022-09-11T22:33:55.044Z,12.90
2022-09-11T22:36:25.775Z,12.90
2022-09-11T22:38:54.792Z,12.90
2022-09-11T22:41:23.457Z,12.90
2022-09-11T22:43:51.592Z,12.90
2022-09-11T22:46:21.523Z,12.90
2022-09-11T22:48:49.819Z,12.80
2022-09-11T22:51:19.323Z,12.80
2022-09-11T22:53:47.589Z,12.80
2022-09-11T22:56:16.822Z,12.70
2022-09-11T22:58:45.144Z,12.70
2022-09-11T23:01:21.835Z,12.70
2022-09-11T23:03:52.083Z,12.70
2022-09-11T23:06:40.030Z,12.60
2022-09-11T23:09:11.772Z,12.60
2022-09-11T23:11:40.257Z,12.60
2022-09-11T23:14:13.351Z,12.60
2022-09-11T23:16:43.275Z,12.60
2022-09-11T23:19:14.845Z,12.60
2022-09-11T23:21:44.424Z,12.50
2022-09-11T23:24:15.336Z,12.50
2022-09-11T23:26:45.232Z,12.50
2022-09-11T23:29:13.763Z,12.50
2022-09-11T23:31:44.180Z,12.40
2022-09-11T23:34:17.085Z,12.40
2022-09-11T23:36:47.105Z,12.40
2022-09-11T23:39:15.358Z,12.30
2022-09-11T23:41:43.427Z,12.30
2022-09-11T23:44:11.811Z,12.30
2022-09-11T23:46:39.851Z,12.30
2022-09-11T23:49:08.154Z,12.20
2022-09-11T23:51:36.600Z,12.20
2022-09-11T23:54:06.422Z,12.10
2022-09-11T23:56:34.739Z,12.10
2022-09-11T23:59:04.675Z,12.10
